Time;durP1;ratioP1;P1;durP2;ratioP2;P2;SDS_P1;SDS_P2;PMS_P1;PMS_P2;Temp;Humidity;BMP_temperature;BMP_pressure;BME280_temperature;BME280_humidity;BME280_pressure;Samples;Min_cycle;Max_cycle;Signal;HPM_P1;HPM_P2
2021/12/05 07:00:54;;;;;;;37.47;22.13;;;;;;;;;;4942486;23;20500;-63
2021/12/05 07:03:20;;;;;;;42.15;25.40;;;;;;;;;;4936032;29;20035;-70
2021/12/05 07:08:16;;;;;;;44.10;25.50;;;;;;;;;;4936396;29;20035;-70
2021/12/05 07:18:39;;;;;;;44.30;25.58;;;;;;;;;;4935273;29;20114;-73
2021/12/05 07:26:24;;;;;;;40.80;24.27;;;;;;;;;;4936006;29;20035;-67
2021/12/05 07:42:40;;;;;;;39.50;23.17;;;;;;;;;;4927918;29;20404;-70
2021/12/05 07:45:07;;;;;;;36.13;22.15;;;;;;;;;;4934734;29;20075;-68
2021/12/05 07:47:34;;;;;;;36.95;22.33;;;;;;;;;;4935401;29;20404;-65
2021/12/05 07:50:07;;;;;;;36.55;20.88;;;;;;;;;;4935402;29;20062;-69
2021/12/05 07:52:35;;;;;;;43.10;22.58;;;;;;;;;;4934854;29;20063;-67
2021/12/05 07:55:20;;;;;;;37.70;22.02;;;;;;;;;;4934449;29;20032;-68
2021/12/05 07:58:52;;;;;;;41.97;24.23;;;;;;;;;;4932721;29;20031;-67
2021/12/05 08:00:44;;;;;;;38.42;22.40;;;;;;;;;;4934814;29;20660;-63
2021/12/05 08:14:38;;;;;;;45.35;26.58;;;;;;;;;;4951859;29;20437;-63
2021/12/05 08:17:06;;;;;;;59.28;32.55;;;;;;;;;;4953649;29;20062;-63
2021/12/05 08:19:33;;;;;;;64.25;35.67;;;;;;;;;;4953716;28;20024;-62
2021/12/05 08:21:59;;;;;;;60.05;33.17;;;;;;;;;;4953383;29;20035;-72
2021/12/05 08:24:30;;;;;;;59.92;33.55;;;;;;;;;;4952370;29;20078;-63
2021/12/05 08:26:56;;;;;;;55.92;32.33;;;;;;;;;;4951604;29;20071;-71
2021/12/05 08:29:31;;;;;;;61.78;32.92;;;;;;;;;;4952095;29;20106;-68
2021/12/05 08:32:14;;;;;;;57.78;31.58;;;;;;;;;;4951375;29;20062;-66
2021/12/05 09:24:24;;;;;;;70.75;37.22;;;;;;;;;;4951232;29;20038;-65
2021/12/05 10:15:38;;;;;;;84.55;46.33;;;;;;;;;;4816011;29;20581;-62
2021/12/05 10:37:22;;;;;;;69.38;39.22;;;;;;;;;;4876044;29;20029;-65
2021/12/05 10:40:00;;;;;;;69.85;37.45;;;;;;;;;;4875039;29;20037;-63
2021/12/05 10:42:40;;;;;;;68.28;38.33;;;;;;;;;;4874526;29;20029;-64
2021/12/05 10:45:08;;;;;;;72.97;40.28;;;;;;;;;;4929713;29;20290;-66
2021/12/05 10:47:45;;;;;;;75.45;40.78;;;;;;;;;;4949864;29;20031;-67
2021/12/05 10:50:47;;;;;;;71.55;40.70;;;;;;;;;;4937167;29;20407;-65
2021/12/05 10:53:21;;;;;;;66.78;37.85;;;;;;;;;;4839999;29;20030;-65
2021/12/05 10:56:06;;;;;;;65.97;36.88;;;;;;;;;;4842002;29;20066;-64
2021/12/05 10:58:44;;;;;;;66.40;37.03;;;;;;;;;;4838570;29;20041;-63
2021/12/05 11:01:17;;;;;;;71.90;38.88;;;;;;;;;;4856239;29;20061;-64
2021/12/05 11:03:45;;;;;;;63.90;38.58;;;;;;;;;;4859856;29;20086;-62
2021/12/05 11:06:22;;;;;;;72.25;39.92;;;;;;;;;;4842349;29;20025;-63
2021/12/05 11:08:53;;;;;;;74.43;40.38;;;;;;;;;;4856480;29;20102;-64
2021/12/05 11:11:21;;;;;;;68.65;37.85;;;;;;;;;;4859626;29;20469;-63
2021/12/05 11:13:50;;;;;;;67.07;37.15;;;;;;;;;;4862588;29;20046;-64
2021/12/05 11:16:32;;;;;;;70.15;37.08;;;;;;;;;;4859606;29;20057;-64
2021/12/05 11:18:59;;;;;;;63.42;36.67;;;;;;;;;;4845146;29;20086;-62
2021/12/05 11:21:29;;;;;;;67.70;39.30;;;;;;;;;;4845521;29;20097;-63
2021/12/05 11:24:10;;;;;;;66.72;36.58;;;;;;;;;;4860881;29;20041;-63
2021/12/05 11:26:38;;;;;;;67.75;38.45;;;;;;;;;;4878943;29;21079;-62
2021/12/05 11:29:05;;;;;;;88.70;45.28;;;;;;;;;;4938795;29;20485;-63
2021/12/05 11:31:33;;;;;;;99.50;51.75;;;;;;;;;;4937026;29;20372;-63
2021/12/05 11:33:59;;;;;;;116.90;61.05;;;;;;;;;;4932282;29;20039;-62
2021/12/05 11:36:32;;;;;;;112.70;58.10;;;;;;;;;;4934136;29;20765;-63
2021/12/05 11:38:59;;;;;;;115.20;57.40;;;;;;;;;;4933356;29;20036;-63
2021/12/05 11:41:26;;;;;;;100.25;52.33;;;;;;;;;;4917163;29;20035;-64
2021/12/05 11:44:00;;;;;;;94.15;48.38;;;;;;;;;;4933759;29;20397;-63
2021/12/05 11:46:29;;;;;;;93.13;48.35;;;;;;;;;;4933660;29;20840;-62
2021/12/05 11:49:10;;;;;;;91.75;48.40;;;;;;;;;;4917849;29;20371;-62
2021/12/05 11:51:44;;;;;;;91.75;49.33;;;;;;;;;;4935530;29;20404;-63
2021/12/05 11:54:20;;;;;;;91.70;49.67;;;;;;;;;;4931933;29;20396;-63
2021/12/05 11:56:47;;;;;;;92.35;50.13;;;;;;;;;;4935718;29;20064;-64
2021/12/05 11:59:16;;;;;;;96.70;52.38;;;;;;;;;;4939422;28;20088;-63
2021/12/05 12:01:45;;;;;;;100.22;52.75;;;;;;;;;;4957018;29;20065;-62
2021/12/05 12:04:13;;;;;;;104.40;54.78;;;;;;;;;;4953506;28;20055;-63
2021/12/05 12:06:40;;;;;;;102.05;54.67;;;;;;;;;;4949045;29;20027;-63
2021/12/05 12:09:06;;;;;;;97.93;52.45;;;;;;;;;;4953064;29;20039;-64
2021/12/05 12:11:34;;;;;;;101.93;52.78;;;;;;;;;;4951934;29;20091;-63
2021/12/05 12:14:00;;;;;;;101.55;52.40;;;;;;;;;;4951877;29;20035;-62
2021/12/05 12:16:27;;;;;;;104.15;52.53;;;;;;;;;;4951675;28;20146;-63
2021/12/05 12:18:53;;;;;;;93.72;49.28;;;;;;;;;;4952517;29;20375;-63
2021/12/05 12:21:21;;;;;;;100.00;49.70;;;;;;;;;;4952790;28;20079;-61
2021/12/05 12:23:52;;;;;;;100.93;50.72;;;;;;;;;;4950092;29;20052;-61
2021/12/05 12:26:18;;;;;;;101.97;53.75;;;;;;;;;;4952211;29;20035;-62
2021/12/05 12:28:45;;;;;;;107.50;56.40;;;;;;;;;;4952572;29;20039;-62
2021/12/05 12:31:17;;;;;;;91.53;48.20;;;;;;;;;;4952697;29;20065;-64
2021/12/05 12:33:49;;;;;;;86.28;44.83;;;;;;;;;;4951983;29;20023;-63
2021/12/05 12:36:15;;;;;;;67.95;32.30;;;;;;;;;;4951475;29;20178;-63
2021/12/05 12:38:43;;;;;;;79.20;41.10;;;;;;;;;;4951090;28;20034;-61
2021/12/05 12:41:20;;;;;;;79.63;40.22;;;;;;;;;;4951130;29;20042;-62
2021/12/05 12:43:49;;;;;;;75.95;41.50;;;;;;;;;;4949554;29;20027;-62
2021/12/05 12:46:34;;;;;;;77.88;41.90;;;;;;;;;;4952709;29;20073;-63
2021/12/05 12:49:15;;;;;;;81.10;41.90;;;;;;;;;;4950370;28;20035;-62
2021/12/05 12:51:41;;;;;;;75.72;42.38;;;;;;;;;;4950127;29;20027;-64
2021/12/05 12:54:14;;;;;;;78.97;43.55;;;;;;;;;;4951498;29;20444;-62
2021/12/05 12:56:42;;;;;;;78.38;43.13;;;;;;;;;;4950354;28;20042;-64
2021/12/05 12:59:16;;;;;;;72.57;39.97;;;;;;;;;;4951035;28;20035;-65
2021/12/05 13:04:49;;;;;;;67.53;36.05;;;;;;;;;;4950589;29;20047;-67
2021/12/05 13:10:06;;;;;;;58.55;32.33;;;;;;;;;;4950382;29;20055;-68
2021/12/05 13:12:42;;;;;;;57.70;32.88;;;;;;;;;;4951576;29;20019;-63
2021/12/05 13:15:08;;;;;;;59.15;34.08;;;;;;;;;;4949809;28;20034;-64
2021/12/05 13:17:41;;;;;;;56.22;32.22;;;;;;;;;;4951169;29;20034;-67
2021/12/05 13:20:09;;;;;;;53.33;29.95;;;;;;;;;;4951221;29;20558;-67
2021/12/05 13:22:55;;;;;;;55.17;30.08;;;;;;;;;;4949475;28;20070;-75
2021/12/05 13:25:21;;;;;;;46.33;26.70;;;;;;;;;;4949732;29;20398;-67
2021/12/05 13:27:47;;;;;;;48.15;27.90;;;;;;;;;;4953429;28;20114;-70
2021/12/05 13:30:27;;;;;;;53.83;30.25;;;;;;;;;;4950006;29;20079;-65
2021/12/05 13:33:13;;;;;;;54.90;29.38;;;;;;;;;;4951983;28;20034;-66
2021/12/05 13:35:40;;;;;;;48.38;28.00;;;;;;;;;;4947796;29;20031;-71
2021/12/05 13:38:07;;;;;;;46.78;27.42;;;;;;;;;;4957356;29;20109;-69
2021/12/05 13:40:34;;;;;;;51.83;28.80;;;;;;;;;;4955776;28;20050;-71
2021/12/05 13:43:06;;;;;;;57.92;32.53;;;;;;;;;;4936983;29;20368;-70
2021/12/05 13:45:43;;;;;;;43.30;26.02;;;;;;;;;;4955832;28;20091;-69
2021/12/05 13:48:15;;;;;;;48.63;28.17;;;;;;;;;;4954471;28;20063;-71
2021/12/05 13:50:43;;;;;;;54.08;30.25;;;;;;;;;;4940410;29;20023;-69
2021/12/05 13:53:10;;;;;;;44.13;25.70;;;;;;;;;;4937755;28;20074;-67
2021/12/05 13:55:41;;;;;;;47.20;26.90;;;;;;;;;;4956772;29;20031;-64
2021/12/05 13:58:23;;;;;;;44.42;26.30;;;;;;;;;;4959519;28;20035;-65
2021/12/05 14:00:55;;;;;;;49.40;26.65;;;;;;;;;;4957564;28;20506;-65
2021/12/05 14:03:21;;;;;;;;;;;;;;;;;;4956975;29;20047;-66
2021/12/05 14:05:47;;;;;;;43.65;24.77;;;;;;;;;;4956501;29;19910;-63
2021/12/05 14:08:14;;;;;;;46.50;26.20;;;;;;;;;;4957477;28;20039;-68
2021/12/05 14:10:44;;;;;;;46.53;27.20;;;;;;;;;;4957982;28;20385;-72
2021/12/05 14:13:11;;;;;;;48.58;27.38;;;;;;;;;;4956500;29;20031;-69
2021/12/05 14:15:37;;;;;;;50.67;29.75;;;;;;;;;;4956151;28;20182;-65
2021/12/05 14:18:03;;;;;;;52.72;30.27;;;;;;;;;;4956279;29;20032;-69
2021/12/05 14:20:29;;;;;;;54.75;30.48;;;;;;;;;;4955552;29;20023;-66
2021/12/05 14:22:57;;;;;;;51.33;30.77;;;;;;;;;;4958695;28;20046;-68
2021/12/05 14:25:25;;;;;;;55.03;31.33;;;;;;;;;;4942762;29;20035;-67
2021/12/05 14:27:52;;;;;;;60.03;32.88;;;;;;;;;;4955038;29;20114;-66
2021/12/05 14:30:20;;;;;;;54.13;32.72;;;;;;;;;;4935353;29;20133;-64
2021/12/05 14:32:48;;;;;;;57.88;31.95;;;;;;;;;;4954468;29;20098;-63
2021/12/05 14:35:24;;;;;;;52.67;30.25;;;;;;;;;;4954402;29;20478;-63
2021/12/05 14:37:52;;;;;;;50.75;29.10;;;;;;;;;;4952045;29;20034;-65
2021/12/05 14:40:25;;;;;;;50.95;29.67;;;;;;;;;;4937889;29;20047;-63
2021/12/05 14:42:52;;;;;;;55.08;30.48;;;;;;;;;;4953491;29;20020;-64
2021/12/05 14:45:21;;;;;;;53.33;31.10;;;;;;;;;;4955881;29;20426;-62
2021/12/05 14:47:47;;;;;;;58.88;32.50;;;;;;;;;;4935698;29;20055;-64
2021/12/05 14:50:15;;;;;;;65.57;35.03;;;;;;;;;;4954829;29;20027;-64
2021/12/05 14:52:43;;;;;;;60.83;34.20;;;;;;;;;;4952631;29;20075;-64
2021/12/05 14:55:10;;;;;;;64.95;35.38;;;;;;;;;;4951776;29;20057;-71
2021/12/05 14:57:47;;;;;;;80.15;40.40;;;;;;;;;;4954208;29;20240;-63
2021/12/05 15:00:22;;;;;;;80.22;42.65;;;;;;;;;;4955431;29;20050;-68
2021/12/05 15:02:49;;;;;;;86.65;43.03;;;;;;;;;;4953799;29;20034;-69
2021/12/05 15:05:16;;;;;;;85.55;45.25;;;;;;;;;;4951930;29;20032;-65
2021/12/05 15:07:44;;;;;;;89.72;45.92;;;;;;;;;;4951666;29;20034;-63
2021/12/05 15:10:11;;;;;;;84.80;45.08;;;;;;;;;;4951812;29;20039;-67
2021/12/05 15:12:37;;;;;;;82.65;42.60;;;;;;;;;;4952483;28;20039;-64
2021/12/05 15:15:07;;;;;;;79.60;42.17;;;;;;;;;;4936400;28;20423;-60
2021/12/05 15:17:41;;;;;;;80.88;42.90;;;;;;;;;;4953193;29;20023;-64
2021/12/05 15:20:28;;;;;;;69.43;37.40;;;;;;;;;;4954557;29;20070;-69
2021/12/05 15:22:56;;;;;;;71.95;37.97;;;;;;;;;;4938123;29;20023;-67
2021/12/05 15:25:24;;;;;;;66.82;36.08;;;;;;;;;;4953277;29;20133;-65
2021/12/05 15:27:51;;;;;;;71.90;38.05;;;;;;;;;;4953889;29;20039;-66
2021/12/05 15:30:20;;;;;;;63.05;34.08;;;;;;;;;;4954061;29;20027;-68
2021/12/05 15:32:50;;;;;;;61.67;33.25;;;;;;;;;;4952977;29;20522;-66
2021/12/05 15:35:17;;;;;;;62.05;32.45;;;;;;;;;;4949280;29;20530;-69
2021/12/05 15:37:50;;;;;;;57.95;31.30;;;;;;;;;;4952199;28;20126;-70
2021/12/05 15:40:17;;;;;;;55.03;29.50;;;;;;;;;;4953168;28;20274;-68
2021/12/05 15:42:43;;;;;;;52.53;27.95;;;;;;;;;;4954471;29;20023;-69
2021/12/05 15:45:11;;;;;;;52.10;27.92;;;;;;;;;;4954972;28;20033;-67
2021/12/05 15:47:37;;;;;;;46.55;26.00;;;;;;;;;;4954638;29;20122;-65
2021/12/05 15:50:03;;;;;;;45.08;24.58;;;;;;;;;;4953315;29;20058;-69
2021/12/05 15:52:32;;;;;;;44.60;25.17;;;;;;;;;;4954475;29;20027;-64
2021/12/05 15:54:59;;;;;;;45.58;26.13;;;;;;;;;;4954713;29;20039;-70
2021/12/05 15:57:35;;;;;;;45.55;25.13;;;;;;;;;;4954249;29;20094;-67
2021/12/05 16:00:07;;;;;;;45.80;24.60;;;;;;;;;;4953704;29;20109;-61
2021/12/05 16:02:33;;;;;;;48.93;25.63;;;;;;;;;;4954354;29;20054;-62
2021/12/05 16:04:59;;;;;;;47.38;25.77;;;;;;;;;;4954439;28;20268;-65
2021/12/05 16:07:27;;;;;;;46.72;25.90;;;;;;;;;;4954133;28;20031;-69
2021/12/05 16:10:07;;;;;;;46.45;25.73;;;;;;;;;;4954297;29;20038;-68
2021/12/05 16:12:37;;;;;;;41.33;24.17;;;;;;;;;;4953865;29;20019;-68
2021/12/05 16:15:03;;;;;;;48.40;27.02;;;;;;;;;;4952948;29;20039;-66
2021/12/05 16:17:30;;;;;;;45.83;26.17;;;;;;;;;;4952295;29;20890;-66
2021/12/05 16:20:09;;;;;;;49.38;27.42;;;;;;;;;;4954187;29;20038;-72
2021/12/05 16:23:14;;;;;;;53.40;28.75;;;;;;;;;;4953758;28;20074;-67
2021/12/05 16:25:48;;;;;;;56.75;31.00;;;;;;;;;;4874694;29;20040;-68
2021/12/05 16:28:15;;;;;;;59.53;32.00;;;;;;;;;;4875483;29;20543;-70
2021/12/05 16:30:44;;;;;;;66.05;35.80;;;;;;;;;;4858840;29;20131;-66
2021/12/05 16:33:11;;;;;;;68.40;36.67;;;;;;;;;;4874605;29;20124;-70
2021/12/05 16:35:39;;;;;;;72.43;37.30;;;;;;;;;;4874407;29;20044;-69
2021/12/05 16:38:25;;;;;;;77.30;39.95;;;;;;;;;;4874565;29;20166;-64
2021/12/05 16:40:54;;;;;;;79.72;41.65;;;;;;;;;;4874691;29;20071;-68
2021/12/05 16:43:21;;;;;;;82.15;42.45;;;;;;;;;;4876195;29;20116;-67
2021/12/05 16:45:47;;;;;;;75.93;39.90;;;;;;;;;;4874883;29;20040;-66
2021/12/05 16:48:16;;;;;;;78.10;39.83;;;;;;;;;;4875507;29;20097;-67
2021/12/05 16:50:43;;;;;;;76.40;40.33;;;;;;;;;;4876494;29;20477;-68
2021/12/05 16:53:11;;;;;;;78.05;42.33;;;;;;;;;;4859228;29;20043;-66
2021/12/05 16:55:41;;;;;;;76.05;39.65;;;;;;;;;;4887657;29;20439;-61
2021/12/05 16:58:16;;;;;;;65.47;36.67;;;;;;;;;;4950361;29;20443;-63
2021/12/05 17:00:44;;;;;;;60.08;32.60;;;;;;;;;;4951124;29;20424;-62
2021/12/05 17:03:10;;;;;;;53.40;28.55;;;;;;;;;;4951871;29;20383;-62
2021/12/05 17:05:44;;;;;;;49.85;27.55;;;;;;;;;;4951701;28;20042;-61
2021/12/05 17:08:13;;;;;;;43.17;23.65;;;;;;;;;;4949134;29;20043;-61
2021/12/05 17:10:44;;;;;;;38.88;22.80;;;;;;;;;;4952563;29;20035;-68
2021/12/05 17:13:10;;;;;;;41.35;23.58;;;;;;;;;;4949072;29;20051;-67
2021/12/05 17:15:38;;;;;;;41.13;23.40;;;;;;;;;;4950273;29;20074;-67
2021/12/05 17:18:12;;;;;;;45.10;24.00;;;;;;;;;;4950641;29;20027;-67
2021/12/05 17:20:44;;;;;;;50.58;26.90;;;;;;;;;;4951619;29;20382;-65
2021/12/05 17:23:18;;;;;;;52.53;28.92;;;;;;;;;;4949151;29;20146;-68
2021/12/05 17:25:46;;;;;;;57.85;30.92;;;;;;;;;;4950103;29;20078;-67
2021/12/05 17:28:18;;;;;;;63.45;34.40;;;;;;;;;;4950484;28;20483;-67
2021/12/05 17:30:51;;;;;;;60.20;33.47;;;;;;;;;;4951486;29;20054;-68
2021/12/05 17:33:28;;;;;;;68.35;35.53;;;;;;;;;;4950998;29;20038;-65
2021/12/05 17:35:54;;;;;;;65.57;35.33;;;;;;;;;;4948926;29;20027;-66
2021/12/05 17:38:34;;;;;;;69.40;37.30;;;;;;;;;;4951468;29;20019;-66
2021/12/05 17:41:00;;;;;;;74.82;39.45;;;;;;;;;;4949087;29;20035;-66
2021/12/05 17:43:27;;;;;;;76.93;39.30;;;;;;;;;;4949519;29;20027;-67
2021/12/05 17:45:53;;;;;;;81.00;41.17;;;;;;;;;;4950074;29;20035;-69
2021/12/05 17:48:19;;;;;;;79.88;41.42;;;;;;;;;;4949636;29;20046;-67
2021/12/05 17:50:45;;;;;;;82.15;44.40;;;;;;;;;;4950306;29;20034;-67
2021/12/05 17:53:11;;;;;;;88.50;45.33;;;;;;;;;;4950190;29;20550;-64
2021/12/05 17:55:44;;;;;;;91.05;47.78;;;;;;;;;;4950229;29;20479;-65
2021/12/05 17:58:37;;;;;;;99.88;50.95;;;;;;;;;;4951639;29;20027;-66
2021/12/05 18:04:06;;;;;;;78.43;40.30;;;;;;;;;;4910412;29;20092;-66
2021/12/05 18:06:32;;;;;;;102.40;52.17;;;;;;;;;;4912387;29;20443;-64
2021/12/05 18:08:58;;;;;;;98.07;52.00;;;;;;;;;;4912194;29;20071;-65
2021/12/05 18:11:25;;;;;;;94.88;49.22;;;;;;;;;;4910962;29;20035;-62
2021/12/05 18:13:54;;;;;;;93.15;50.45;;;;;;;;;;4911405;29;20084;-62
2021/12/05 18:16:25;;;;;;;95.72;51.70;;;;;;;;;;4912196;29;20032;-65
2021/12/05 18:18:53;;;;;;;103.03;52.33;;;;;;;;;;4912039;29;20044;-67
2021/12/05 18:21:19;;;;;;;95.30;49.65;;;;;;;;;;4912294;29;20042;-63
2021/12/05 18:23:45;;;;;;;98.50;51.25;;;;;;;;;;4912058;29;20063;-67
2021/12/05 18:26:12;;;;;;;95.32;50.47;;;;;;;;;;4909501;29;20098;-66
2021/12/05 18:28:38;;;;;;;101.70;50.03;;;;;;;;;;4908754;29;20040;-65
2021/12/05 18:31:05;;;;;;;90.57;46.00;;;;;;;;;;4909100;29;20036;-63
2021/12/05 18:33:32;;;;;;;81.60;41.75;;;;;;;;;;4911628;29;20036;-64
2021/12/05 18:35:59;;;;;;;69.10;38.70;;;;;;;;;;4910453;29;20032;-65
2021/12/05 18:38:25;;;;;;;75.53;39.58;;;;;;;;;;4936678;28;20042;-65
2021/12/05 18:40:54;;;;;;;77.63;42.88;;;;;;;;;;4967553;28;20114;-64
2021/12/05 18:43:24;;;;;;;85.65;44.75;;;;;;;;;;4959662;28;20546;-64
2021/12/05 18:45:51;;;;;;;80.72;43.40;;;;;;;;;;4942640;29;20034;-63
2021/12/05 18:48:17;;;;;;;72.40;39.78;;;;;;;;;;4969585;28;20031;-62
2021/12/05 18:50:43;;;;;;;75.65;39.85;;;;;;;;;;4958643;28;20102;-63
2021/12/05 18:53:12;;;;;;;72.47;41.00;;;;;;;;;;4968548;28;20031;-65
2021/12/05 18:55:39;;;;;;;85.10;43.30;;;;;;;;;;4965659;28;20029;-66
2021/12/05 18:58:08;;;;;;;89.13;45.55;;;;;;;;;;4961237;28;20447;-66
2021/12/05 19:04:18;;;;;;;83.25;42.22;;;;;;;;;;4970852;28;20062;-68
2021/12/05 19:06:11;;;;;;;82.95;41.83;;;;;;;;;;4969134;28;20082;-67
2021/12/05 19:09:04;;;;;;;76.45;40.38;;;;;;;;;;4958241;28;20049;-69
2021/12/05 19:14:08;;;;;;;68.75;37.45;;;;;;;;;;4960602;28;20546;-65
2021/12/05 19:16:35;;;;;;;70.65;38.30;;;;;;;;;;4937794;29;20394;-65
2021/12/05 19:19:03;;;;;;;66.97;38.13;;;;;;;;;;4955534;29;20423;-64
2021/12/05 19:21:29;;;;;;;65.78;35.28;;;;;;;;;;4955517;29;20031;-66
2021/12/05 19:23:57;;;;;;;61.20;33.50;;;;;;;;;;4955229;29;20027;-67
2021/12/05 19:26:24;;;;;;;60.05;32.33;;;;;;;;;;4955279;29;20029;-67
2021/12/05 19:28:50;;;;;;;59.75;32.78;;;;;;;;;;4955227;29;20392;-68
2021/12/05 19:31:17;;;;;;;62.33;34.35;;;;;;;;;;4954023;29;20086;-67
2021/12/05 19:33:43;;;;;;;62.50;34.25;;;;;;;;;;4953846;28;20035;-63
2021/12/05 19:36:14;;;;;;;64.43;32.85;;;;;;;;;;4954417;29;20464;-67
2021/12/05 19:38:40;;;;;;;66.65;33.70;;;;;;;;;;4954732;29;20035;-64
2021/12/05 19:41:06;;;;;;;65.60;34.15;;;;;;;;;;4937112;29;20074;-65
2021/12/05 19:43:33;;;;;;;65.05;33.05;;;;;;;;;;4954551;28;20034;-67
2021/12/05 19:46:01;;;;;;;63.72;32.45;;;;;;;;;;4954036;28;20027;-65
2021/12/05 19:48:27;;;;;;;61.60;32.20;;;;;;;;;;4954358;28;20116;-62
2021/12/05 19:50:54;;;;;;;61.70;32.25;;;;;;;;;;4954835;29;20035;-62
2021/12/05 19:53:20;;;;;;;62.22;32.35;;;;;;;;;;4954443;29;20118;-65
2021/12/05 19:55:46;;;;;;;58.05;32.53;;;;;;;;;;4954376;29;20038;-64
2021/12/05 19:58:12;;;;;;;65.50;32.78;;;;;;;;;;4954011;28;20550;-64
2021/12/05 20:00:39;;;;;;;64.13;32.88;;;;;;;;;;4953227;29;20411;-65
2021/12/05 20:03:05;;;;;;;63.63;34.05;;;;;;;;;;4954619;29;20065;-65
2021/12/05 20:05:32;;;;;;;62.80;33.17;;;;;;;;;;4953506;28;20428;-64
2021/12/05 20:07:59;;;;;;;57.63;30.40;;;;;;;;;;4954195;29;20822;-64
2021/12/05 20:10:28;;;;;;;54.05;29.48;;;;;;;;;;4954425;29;20065;-66
2021/12/05 20:12:54;;;;;;;57.55;31.42;;;;;;;;;;4954056;29;20110;-64
2021/12/05 20:15:20;;;;;;;57.33;30.38;;;;;;;;;;4937209;29;20034;-66
2021/12/05 20:17:49;;;;;;;57.28;30.77;;;;;;;;;;4954211;29;20451;-63
2021/12/05 20:20:16;;;;;;;58.72;32.17;;;;;;;;;;4954102;29;20058;-64
2021/12/05 20:22:42;;;;;;;55.25;31.50;;;;;;;;;;4954153;29;20106;-63
2021/12/05 20:25:10;;;;;;;57.85;34.67;;;;;;;;;;4954067;29;20170;-63
2021/12/05 20:27:38;;;;;;;51.15;29.20;;;;;;;;;;4953201;29;20020;-62
2021/12/05 20:30:05;;;;;;;56.83;28.50;;;;;;;;;;4952388;29;20047;-63
2021/12/05 20:32:31;;;;;;;51.53;28.85;;;;;;;;;;4952455;29;20043;-64
2021/12/05 20:34:57;;;;;;;50.55;28.05;;;;;;;;;;4952645;29;20042;-63
2021/12/05 20:37:23;;;;;;;48.42;27.02;;;;;;;;;;4953046;29;20062;-62
2021/12/05 20:39:50;;;;;;;63.10;34.30;;;;;;;;;;4954916;29;20046;-63
2021/12/05 20:42:16;;;;;;;56.13;31.60;;;;;;;;;;4955710;28;20379;-62
2021/12/05 20:44:42;;;;;;;53.10;28.65;;;;;;;;;;4955179;28;20035;-64
2021/12/05 20:47:08;;;;;;;51.50;28.45;;;;;;;;;;4954514;29;20106;-64
2021/12/05 20:49:35;;;;;;;51.38;28.00;;;;;;;;;;4952147;29;20058;-63
2021/12/05 20:52:01;;;;;;;55.67;28.02;;;;;;;;;;4949529;28;20400;-63
2021/12/05 20:54:35;;;;;;;53.63;29.05;;;;;;;;;;4952668;29;20027;-63
2021/12/05 20:57:02;;;;;;;52.15;29.33;;;;;;;;;;4952663;29;20090;-64
2021/12/05 20:59:28;;;;;;;52.00;28.77;;;;;;;;;;4952857;29;20055;-64
2021/12/05 21:01:54;;;;;;;62.60;31.98;;;;;;;;;;4953377;29;20654;-64
2021/12/05 21:04:20;;;;;;;53.08;31.60;;;;;;;;;;4953453;29;20601;-65
2021/12/05 21:06:47;;;;;;;50.92;28.90;;;;;;;;;;4953219;29;20767;-63
2021/12/05 21:09:13;;;;;;;55.97;30.45;;;;;;;;;;4952921;29;20064;-64
2021/12/05 21:11:39;;;;;;;54.10;29.92;;;;;;;;;;4949119;28;20357;-64
2021/12/05 21:14:06;;;;;;;59.42;30.65;;;;;;;;;;4952959;28;20081;-64
2021/12/05 21:16:32;;;;;;;57.80;30.67;;;;;;;;;;4953398;28;20058;-64
2021/12/05 21:18:58;;;;;;;54.05;29.88;;;;;;;;;;4953359;29;20027;-65
2021/12/05 21:21:25;;;;;;;55.60;30.75;;;;;;;;;;4953023;29;20120;-67
2021/12/05 21:23:51;;;;;;;65.70;35.22;;;;;;;;;;4952994;29;20380;-65
2021/12/05 21:26:18;;;;;;;70.78;37.97;;;;;;;;;;4951771;29;20495;-64
2021/12/05 21:28:44;;;;;;;72.88;38.33;;;;;;;;;;4952319;29;20468;-66
2021/12/05 21:31:12;;;;;;;64.03;35.97;;;;;;;;;;4952770;28;20038;-64
2021/12/05 21:33:39;;;;;;;67.95;37.17;;;;;;;;;;4951263;29;20506;-62
2021/12/05 21:36:06;;;;;;;81.15;42.25;;;;;;;;;;4949899;29;20042;-62
2021/12/05 21:38:32;;;;;;;87.18;45.90;;;;;;;;;;4951032;29;20027;-62
2021/12/05 21:41:02;;;;;;;82.82;44.05;;;;;;;;;;4950953;29;20573;-65
2021/12/05 21:43:28;;;;;;;89.80;46.47;;;;;;;;;;4950902;29;20023;-64
2021/12/05 21:45:55;;;;;;;84.03;45.13;;;;;;;;;;4951611;28;20027;-65
2021/12/05 21:48:21;;;;;;;84.32;44.42;;;;;;;;;;4951279;29;20118;-65
2021/12/05 21:50:47;;;;;;;81.03;44.05;;;;;;;;;;4951148;29;20023;-63
2021/12/05 21:53:18;;;;;;;87.43;44.60;;;;;;;;;;4951079;29;20043;-63
2021/12/05 21:55:46;;;;;;;88.88;42.65;;;;;;;;;;4950802;29;20082;-64
2021/12/05 21:58:12;;;;;;;84.90;43.70;;;;;;;;;;4950425;28;20019;-64
2021/12/05 22:00:40;;;;;;;82.03;43.20;;;;;;;;;;4950557;28;20105;-63
2021/12/05 22:03:07;;;;;;;83.10;43.08;;;;;;;;;;4948482;29;20035;-64
2021/12/05 22:05:34;;;;;;;86.20;43.08;;;;;;;;;;4950525;29;20023;-64
2021/12/05 22:08:00;;;;;;;91.20;45.55;;;;;;;;;;4952109;29;20035;-65
2021/12/05 22:10:27;;;;;;;83.10;44.95;;;;;;;;;;4952335;28;20042;-66
2021/12/05 22:12:53;;;;;;;87.65;46.67;;;;;;;;;;4952100;29;20066;-65
2021/12/05 22:15:23;;;;;;;92.28;48.17;;;;;;;;;;4952557;29;20019;-67
2021/12/05 22:17:49;;;;;;;92.30;49.22;;;;;;;;;;4952450;29;20027;-66
2021/12/05 22:20:24;;;;;;;88.82;48.22;;;;;;;;;;4952308;29;20037;-64
2021/12/05 22:22:51;;;;;;;90.57;49.38;;;;;;;;;;4952870;28;20070;-64
2021/12/05 22:25:17;;;;;;;94.30;48.97;;;;;;;;;;4955013;29;20028;-66
2021/12/05 22:27:43;;;;;;;87.18;48.15;;;;;;;;;;4951928;28;20023;-64
2021/12/05 22:30:09;;;;;;;93.22;50.15;;;;;;;;;;4954536;29;20114;-64
2021/12/05 22:32:35;;;;;;;87.18;48.03;;;;;;;;;;4954867;29;20027;-69
2021/12/05 22:35:01;;;;;;;92.20;50.42;;;;;;;;;;4954924;29;20038;-67
